Time;durP1;ratioP1;P1;durP2;ratioP2;P2;SDS_P1;SDS_P2;PMS_P1;PMS_P2;Temp;Humidity;BMP_temperature;BMP_pressure;BME280_temperature;BME280_humidity;BME280_pressure;Samples;Min_cycle;Max_cycle;Signal;HPM_P1;HPM_P2
2023/08/18 06:07:26;;;;;;;4.20;1.08;;;;;;;18.52;94.42;102687.59;5109831;27;20426;-64
2023/08/18 06:09:51;;;;;;;1.63;1.50;;;;;;;18.78;94.10;102728.75;5109765;28;20355;-64
2023/08/18 06:12:22;;;;;;;3.58;1.90;;;;;;;18.78;94.48;102747.66;5108522;28;20024;-66
2023/08/18 06:14:47;;;;;;;1.52;1.35;;;;;;;18.69;94.36;102729.78;5109284;28;20043;-65
2023/08/18 06:17:13;;;;;;;1.70;1.30;;;;;;;18.71;94.15;102735.00;5091440;28;20111;-65
2023/08/18 06:19:38;;;;;;;1.67;1.55;;;;;;;18.47;94.37;102701.56;5109735;28;20058;-64
2023/08/18 06:22:04;;;;;;;1.80;1.50;;;;;;;18.70;94.06;102744.13;5109414;28;20020;-63
2023/08/18 06:24:29;;;;;;;1.50;1.23;;;;;;;18.75;93.23;102741.75;5109377;28;20035;-65
2023/08/18 06:26:55;;;;;;;1.27;1.10;;;;;;;18.94;92.17;102732.47;5109274;28;20110;-66
2023/08/18 06:29:20;;;;;;;1.90;1.25;;;;;;;18.97;90.67;102705.13;5109502;28;20585;-63
2023/08/18 06:31:46;;;;;;;2.22;1.73;;;;;;;19.32;90.13;102731.75;5109351;28;20055;-65
2023/08/18 06:34:11;;;;;;;1.05;0.95;;;;;;;19.40;88.05;102720.09;5109359;28;20161;-66
2023/08/18 06:36:36;;;;;;;1.60;0.98;;;;;;;19.66;84.21;102742.34;5108051;28;20460;-66
2023/08/18 06:39:02;;;;;;;2.25;1.20;;;;;;;19.75;84.59;102746.69;5109188;28;20032;-66
2023/08/18 06:41:28;;;;;;;2.13;1.17;;;;;;;19.80;83.68;102716.41;5109359;28;20041;-68
2023/08/18 06:43:53;;;;;;;1.33;0.93;;;;;;;20.03;81.65;102738.94;5107745;28;20093;-66
2023/08/18 06:46:18;;;;;;;1.25;1.15;;;;;;;19.98;79.74;102729.69;5108757;28;20024;-66
2023/08/18 06:48:44;;;;;;;1.13;0.70;;;;;;;19.93;79.88;102756.41;5109096;28;20103;-65
2023/08/18 06:51:09;;;;;;;3.22;1.65;;;;;;;19.82;81.92;102752.22;5109080;28;20347;-64
2023/08/18 06:53:35;;;;;;;2.67;1.08;;;;;;;19.88;79.78;102746.09;5109129;28;20032;-64
2023/08/18 06:56:00;;;;;;;3.10;1.00;;;;;;;20.15;80.44;102752.06;5107659;28;20459;-63
2023/08/18 06:58:26;;;;;;;2.45;0.77;;;;;;;20.02;78.02;102709.38;5108829;28;20510;-65
2023/08/18 07:00:52;;;;;;;3.47;1.20;;;;;;;20.22;78.80;102736.81;5107649;28;20039;-66
2023/08/18 07:03:17;;;;;;;3.17;1.13;;;;;;;20.34;79.12;102744.34;5109349;28;20332;-67
2023/08/18 07:05:44;;;;;;;1.13;0.70;;;;;;;20.44;78.10;102727.06;5111921;28;20448;-68
2023/08/18 07:08:10;;;;;;;1.75;1.20;;;;;;;20.57;77.84;102725.44;5097745;28;20036;-65
2023/08/18 07:10:35;;;;;;;1.15;0.82;;;;;;;20.64;77.17;102731.81;5096710;28;20031;-66
2023/08/18 07:13:01;;;;;;;0.93;0.85;;;;;;;20.62;77.68;102731.16;5078462;28;20024;-64
2023/08/18 07:15:26;;;;;;;2.72;1.05;;;;;;;20.66;76.73;102746.00;5096319;28;20039;-67
2023/08/18 07:17:52;;;;;;;1.73;0.70;;;;;;;20.67;76.94;102753.09;5097535;28;20414;-68
2023/08/18 07:20:17;;;;;;;1.73;1.23;;;;;;;20.71;76.60;102753.59;5094211;28;20106;-69
2023/08/18 07:22:42;;;;;;;1.23;0.98;;;;;;;20.56;73.87;102758.94;5083081;28;20020;-65
2023/08/18 07:25:10;;;;;;;1.02;0.80;;;;;;;20.49;71.19;102771.50;5088822;28;20024;-67
2023/08/18 07:27:36;;;;;;;3.78;0.90;;;;;;;20.49;72.94;102757.13;5085038;28;20059;-67
2023/08/18 07:30:04;;;;;;;0.77;0.75;;;;;;;20.44;70.37;102748.72;5087295;28;20032;-68
2023/08/18 07:32:30;;;;;;;1.38;0.52;;;;;;;20.50;70.19;102750.69;5095280;28;20031;-74
2023/08/18 07:34:55;;;;;;;1.40;0.57;;;;;;;20.54;70.54;102763.72;5094969;28;20028;-72
2023/08/18 07:37:21;;;;;;;1.15;0.93;;;;;;;20.46;72.21;102766.44;5093653;28;20119;-70
2023/08/18 07:39:46;;;;;;;2.30;1.45;;;;;;;20.34;72.54;102767.84;5095131;28;20020;-73
2023/08/18 07:42:12;;;;;;;1.10;0.80;;;;;;;20.37;72.66;102752.09;5094715;28;20031;-75
2023/08/18 07:44:38;;;;;;;1.15;1.05;;;;;;;20.36;71.38;102768.53;5079082;28;20482;-71
2023/08/18 07:47:03;;;;;;;1.25;0.90;;;;;;;20.52;70.88;102795.50;5078509;28;20097;-67
2023/08/18 07:49:29;;;;;;;1.63;1.30;;;;;;;20.52;71.07;102790.09;5094321;28;20482;-69
2023/08/18 07:51:54;;;;;;;1.30;1.08;;;;;;;20.73;70.20;102805.69;5094235;28;20024;-68
2023/08/18 07:54:20;;;;;;;1.40;0.57;;;;;;;20.45;70.21;102791.84;5094407;28;20115;-68
2023/08/18 07:56:45;;;;;;;2.35;0.65;;;;;;;20.43;71.76;102804.69;5086384;28;20382;-67
2023/08/18 07:59:11;;;;;;;1.50;0.60;;;;;;;20.24;71.46;102805.97;5074605;28;20032;-69
2023/08/18 08:01:36;;;;;;;1.55;0.80;;;;;;;20.02;72.89;102791.34;5074853;28;20089;-69
2023/08/18 08:04:03;;;;;;;1.10;0.70;;;;;;;20.00;73.75;102815.03;5074293;28;20576;-68
2023/08/18 08:06:29;;;;;;;0.73;0.70;;;;;;;19.93;73.49;102808.63;5073573;28;20102;-68
2023/08/18 08:08:54;;;;;;;2.22;0.68;;;;;;;19.95;73.92;102822.84;5072488;28;20418;-68
2023/08/18 08:11:20;;;;;;;0.82;0.50;;;;;;;20.10;74.02;102840.00;5073538;28;20028;-66
2023/08/18 08:13:45;;;;;;;2.30;0.95;;;;;;;20.25;73.35;102836.59;5073633;28;20020;-68
2023/08/18 08:16:11;;;;;;;1.98;0.75;;;;;;;20.20;72.87;102828.13;5073846;28;20032;-68
2023/08/18 08:18:36;;;;;;;1.80;0.80;;;;;;;20.22;74.51;102845.84;5074401;28;20024;-64
2023/08/18 08:21:02;;;;;;;2.05;1.00;;;;;;;20.23;74.44;102835.88;5075669;28;20149;-69
2023/08/18 08:23:27;;;;;;;0.68;0.40;;;;;;;20.10;74.92;102831.88;5086077;28;20131;-70
2023/08/18 08:25:52;;;;;;;1.88;0.70;;;;;;;20.16;75.66;102846.56;5082193;28;20020;-67
2023/08/18 08:28:18;;;;;;;1.33;0.75;;;;;;;20.18;75.68;102827.47;5073215;28;20475;-68
2023/08/18 08:30:44;;;;;;;1.00;0.90;;;;;;;20.30;74.88;102847.72;5073209;28;20024;-68
2023/08/18 08:33:13;;;;;;;1.63;1.23;;;;;;;20.21;75.62;102833.34;5081431;28;20036;-68
2023/08/18 08:35:39;;;;;;;1.73;0.85;;;;;;;20.08;74.33;102839.34;5092045;28;20041;-65
2023/08/18 08:38:04;;;;;;;2.30;1.80;;;;;;;20.02;75.59;102828.38;5074645;28;20037;-70
2023/08/18 08:40:30;;;;;;;5.32;2.90;;;;;;;20.14;76.18;102847.78;5073212;28;20035;-67
2023/08/18 08:42:58;;;;;;;1.38;1.27;;;;;;;20.25;76.17;102842.00;5073725;28;20024;-68
2023/08/18 08:45:25;;;;;;;4.22;0.90;;;;;;;20.29;75.17;102852.28;5084180;28;20027;-68
2023/08/18 08:47:54;;;;;;;2.70;1.38;;;;;;;20.23;74.45;102849.41;5099219;28;20040;-66
2023/08/18 08:50:21;;;;;;;1.45;1.30;;;;;;;20.24;73.06;102840.28;5102976;28;20024;-66
2023/08/18 08:52:52;;;;;;;2.58;1.38;;;;;;;20.25;74.02;102845.53;5092879;28;20161;-67
2023/08/18 08:55:23;;;;;;;3.30;1.20;;;;;;;20.36;74.13;102858.66;5100662;28;20027;-66
2023/08/18 08:57:49;;;;;;;4.43;1.20;;;;;;;20.30;74.28;102861.25;5106631;28;20050;-66
2023/08/18 09:00:14;;;;;;;3.65;1.20;;;;;;;20.20;74.00;102838.94;5101557;28;20513;-66
2023/08/18 09:02:42;;;;;;;1.23;1.13;;;;;;;19.91;73.41;102794.44;5096705;28;20030;-68
2023/08/18 09:05:07;;;;;;;2.35;1.33;;;;;;;20.08;75.06;102843.91;5099166;28;20115;-68
2023/08/18 09:07:33;;;;;;;1.73;1.02;;;;;;;20.11;74.65;102857.06;5106950;28;20063;-64
2023/08/18 09:09:59;;;;;;;2.20;1.00;;;;;;;19.96;75.18;102839.91;5095640;28;20387;-69
2023/08/18 09:12:31;;;;;;;1.50;0.95;;;;;;;19.98;74.05;102849.53;5095328;28;20023;-66
2023/08/18 09:14:58;;;;;;;4.15;1.23;;;;;;;20.14;73.94;102845.91;5088839;28;20032;-68
2023/08/18 09:17:26;;;;;;;2.08;1.38;;;;;;;20.24;73.06;102848.38;5092588;28;20028;-65
2023/08/18 09:19:56;;;;;;;3.58;1.20;;;;;;;20.06;73.30;102860.31;5092743;28;20471;-70
2023/08/18 09:22:22;;;;;;;2.58;0.75;;;;;;;19.96;74.58;102856.97;5092218;28;20031;-68
2023/08/18 09:24:51;;;;;;;1.90;1.13;;;;;;;20.03;74.86;102849.84;5092473;28;20481;-66
2023/08/18 09:27:17;;;;;;;1.10;1.00;;;;;;;20.10;73.80;102842.72;5092559;28;20020;-69
2023/08/18 09:29:43;;;;;;;0.80;0.65;;;;;;;20.11;73.68;102855.22;5092034;28;20089;-67
2023/08/18 09:32:11;;;;;;;2.67;1.00;;;;;;;19.73;72.69;102810.06;5092323;28;20348;-70
2023/08/18 09:34:38;;;;;;;1.88;0.98;;;;;;;20.06;71.73;102857.59;5092364;28;20052;-68
2023/08/18 09:37:06;;;;;;;5.10;1.20;;;;;;;20.17;72.27;102866.34;5092008;28;20027;-66
2023/08/18 09:39:32;;;;;;;1.23;1.05;;;;;;;20.32;71.76;102865.44;5092594;28;20084;-66
2023/08/18 09:42:01;;;;;;;2.95;1.17;;;;;;;20.18;72.45;102849.09;5092223;28;20120;-67
2023/08/18 09:44:28;;;;;;;2.40;0.88;;;;;;;20.19;71.44;102858.91;5092324;28;20032;-65
2023/08/18 09:46:58;;;;;;;2.92;0.80;;;;;;;20.27;72.35;102870.56;5092080;28;20122;-68
2023/08/18 09:49:25;;;;;;;1.60;1.30;;;;;;;20.58;71.28;102877.88;5091909;28;20028;-66
2023/08/18 09:51:51;;;;;;;1.42;1.13;;;;;;;20.55;69.54;102862.00;5092290;28;20020;-68
2023/08/18 09:54:19;;;;;;;1.95;1.02;;;;;;;20.73;70.28;102874.22;5092037;28;20093;-65
2023/08/18 09:56:47;;;;;;;3.77;1.17;;;;;;;20.81;70.54;102873.31;5092099;28;20493;-67
2023/08/18 09:59:35;;;;;;;1.67;0.95;;;;;;;20.93;69.70;102865.66;5091995;28;20035;-64
2023/08/18 10:02:03;;;;;;;4.80;1.45;;;;;;;21.05;68.20;102883.16;5091994;28;20183;-71
2023/08/18 10:04:34;;;;;;;2.88;1.17;;;;;;;21.10;67.35;102864.47;5090647;28;20186;-67
2023/08/18 10:07:01;;;;;;;2.65;1.15;;;;;;;21.46;66.70;102872.88;5091871;28;20063;-66
2023/08/18 10:09:28;;;;;;;2.55;0.90;;;;;;;21.61;64.38;102859.31;5091638;28;20497;-66
2023/08/18 10:11:54;;;;;;;1.20;0.68;;;;;;;21.70;65.07;102884.50;5091374;28;20129;-67
2023/08/18 10:14:21;;;;;;;1.77;0.73;;;;;;;21.51;63.10;102873.16;5091578;28;20494;-65
2023/08/18 10:16:50;;;;;;;2.72;1.30;;;;;;;21.42;64.79;102889.69;5090403;28;20073;-65
2023/08/18 10:19:15;;;;;;;;;;;;;;;21.43;65.65;102897.63;5092243;28;20471;-65
2023/08/18 10:21:40;;;;;;;3.97;1.40;;;;;;;21.46;66.12;102904.56;5091860;28;19915;-68
2023/08/18 10:24:06;;;;;;;2.72;1.10;;;;;;;21.28;65.75;102886.72;5091695;28;20020;-65
2023/08/18 10:26:34;;;;;;;4.00;1.20;;;;;;;21.49;65.61;102893.34;5091440;28;20042;-66
2023/08/18 10:29:18;;;;;;;2.15;1.55;;;;;;;21.49;66.15;102875.22;5091353;28;20493;-67
2023/08/18 10:31:48;;;;;;;2.50;1.20;;;;;;;21.57;65.06;102890.56;5091818;28;20060;-68
2023/08/18 10:34:23;;;;;;;1.70;1.40;;;;;;;21.50;65.52;102890.44;5087699;28;20374;-68
2023/08/18 10:36:58;;;;;;;3.72;1.25;;;;;;;21.50;66.21;102884.19;5088335;28;20387;-67
2023/08/18 10:39:25;;;;;;;1.42;1.15;;;;;;;21.42;65.35;102865.28;5080034;28;20039;-65
2023/08/18 10:42:06;;;;;;;2.55;1.67;;;;;;;21.64;64.96;102886.91;5071991;28;20036;-70
2023/08/18 10:44:31;;;;;;;2.08;0.90;;;;;;;21.70;64.35;102882.66;5075176;28;20074;-66
2023/08/18 10:46:57;;;;;;;0.80;0.73;;;;;;;21.47;64.90;102860.16;5075461;28;20036;-66
2023/08/18 10:49:23;;;;;;;2.03;1.27;;;;;;;21.47;65.14;102871.00;5075096;28;20028;-69
2023/08/18 10:51:53;;;;;;;3.30;1.17;;;;;;;21.43;65.00;102883.25;5074961;28;20379;-66
2023/08/18 10:54:19;;;;;;;1.02;0.90;;;;;;;21.25;64.50;102876.25;5075348;28;20028;-65
2023/08/18 10:56:44;;;;;;;1.52;0.98;;;;;;;21.00;65.88;102839.50;5074978;28;20169;-67
2023/08/18 10:59:10;;;;;;;3.05;1.00;;;;;;;21.33;66.22;102884.31;5074988;28;20083;-67
2023/08/18 11:01:36;;;;;;;3.88;1.00;;;;;;;21.46;66.26;102893.72;5075257;28;20036;-66
2023/08/18 11:04:03;;;;;;;4.00;1.50;;;;;;;21.28;67.26;102880.47;5074879;28;20456;-66
2023/08/18 11:06:30;;;;;;;3.85;1.40;;;;;;;21.31;67.51;102870.09;5074455;28;20471;-68
2023/08/18 11:08:56;;;;;;;1.80;1.13;;;;;;;21.55;66.71;102890.72;5075034;28;20103;-67
2023/08/18 11:11:22;;;;;;;6.22;1.15;;;;;;;21.36;68.58;102893.09;5074624;28;20076;-68
2023/08/18 11:13:50;;;;;;;2.72;1.25;;;;;;;20.99;69.68;102887.44;5074559;28;20029;-66
2023/08/18 11:16:16;;;;;;;2.05;1.40;;;;;;;20.63;71.00;102875.47;5074561;28;20424;-67
2023/08/18 11:18:41;;;;;;;3.35;1.33;;;;;;;20.62;71.75;102879.22;5074538;28;20033;-67
2023/08/18 11:21:07;;;;;;;1.55;1.23;;;;;;;20.73;70.83;102887.75;5074363;28;20457;-65
2023/08/18 11:23:34;;;;;;;2.65;1.00;;;;;;;20.66;70.32;102870.56;5073312;28;20021;-66
2023/08/18 11:25:59;;;;;;;2.95;1.30;;;;;;;20.86;69.12;102870.09;5074472;28;20056;-67
2023/08/18 11:28:25;;;;;;;2.17;1.38;;;;;;;21.00;69.57;102855.75;5074418;28;20060;-67
2023/08/18 11:30:54;;;;;;;2.08;1.35;;;;;;;20.56;68.55;102806.84;5074292;28;20036;-65
2023/08/18 11:33:20;;;;;;;1.50;1.40;;;;;;;20.72;68.43;102831.09;5072889;28;20118;-66
2023/08/18 11:35:45;;;;;;;1.85;1.30;;;;;;;20.73;69.04;102863.38;5073901;28;20032;-67
2023/08/18 11:38:11;;;;;;;2.25;1.38;;;;;;;20.51;69.91;102839.81;5074280;28;20479;-66
2023/08/18 11:40:42;;;;;;;3.42;2.78;;;;;;;20.75;69.36;102873.19;5074198;28;20040;-67
2023/08/18 11:43:12;;;;;;;3.85;2.85;;;;;;;20.64;69.60;102860.91;5073193;28;20070;-67
2023/08/18 11:45:38;;;;;;;5.45;2.97;;;;;;;20.71;69.42;102870.00;5072914;28;20119;-66
2023/08/18 11:48:07;;;;;;;1.83;1.60;;;;;;;20.64;69.40;102878.00;5073817;28;20056;-66
2023/08/18 11:50:38;;;;;;;2.35;2.15;;;;;;;20.23;70.14;102844.00;5073876;28;20029;-66
2023/08/18 11:53:05;;;;;;;1.90;1.70;;;;;;;20.15;71.25;102858.41;5073947;28;20118;-68
2023/08/18 11:55:42;;;;;;;1.70;1.60;;;;;;;20.19;72.08;102865.16;5073860;28;20028;-66
2023/08/18 11:58:14;;;;;;;2.75;1.73;;;;;;;20.28;72.41;102876.81;5073855;28;20032;-69
2023/08/18 12:00:41;;;;;;;3.85;1.67;;;;;;;20.22;72.29;102882.91;5073737;28;20028;-68
2023/08/18 12:03:19;;;;;;;1.40;1.25;;;;;;;20.13;73.00;102882.09;5073756;28;20469;-68
2023/08/18 12:05:46;;;;;;;;;;;;;;;20.02;73.71;102872.50;5074069;28;20052;-64
2023/08/18 12:08:13;;;;;;;2.55;1.55;;;;;;;19.67;74.51;102862.13;5073823;28;19912;-67
2023/08/18 12:10:42;;;;;;;3.08;2.78;;;;;;;19.50;76.09;102867.50;5072372;28;20032;-69
2023/08/18 12:13:08;;;;;;;2.20;1.83;;;;;;;19.45;76.89;102879.84;5080756;28;20375;-68
2023/08/18 12:15:33;;;;;;;2.22;1.70;;;;;;;19.33;77.11;102865.81;5084411;28;20038;-67
2023/08/18 12:18:02;;;;;;;1.23;1.08;;;;;;;19.13;77.44;102821.25;5076805;28;20111;-67
2023/08/18 12:20:27;;;;;;;;;;;;;;;19.59;76.53;102878.31;5094078;28;20028;-68
2023/08/18 12:22:52;;;;;;;1.40;1.30;;;;;;;19.65;75.69;102881.19;5087383;28;19908;-67
2023/08/18 12:25:19;;;;;;;1.67;1.27;;;;;;;19.63;75.94;102872.41;5081839;28;20054;-66
2023/08/18 12:27:49;;;;;;;3.05;1.70;;;;;;;19.60;75.81;102861.09;5084667;28;20028;-75
2023/08/18 12:30:16;;;;;;;1.60;1.50;;;;;;;19.70;76.14;102868.03;5082211;28;20093;-68
2023/08/18 12:32:44;;;;;;;2.00;1.45;;;;;;;19.93;75.10;102873.53;5082660;28;20406;-68
2023/08/18 12:35:10;;;;;;;3.45;1.42;;;;;;;19.92;74.15;102854.75;5080458;28;20036;-66
2023/08/18 12:37:37;;;;;;;1.48;1.27;;;;;;;19.87;73.55;102852.59;5083479;28;20035;-73
2023/08/18 12:40:07;;;;;;;1.50;1.20;;;;;;;19.94;73.31;102867.09;5100831;28;20028;-70
2023/08/18 12:42:33;;;;;;;2.13;1.00;;;;;;;19.94;71.78;102880.63;5097178;28;20471;-72
2023/08/18 12:44:58;;;;;;;1.80;1.33;;;;;;;19.84;69.10;102871.88;5095649;28;20034;-68
2023/08/18 12:47:24;;;;;;;1.00;0.85;;;;;;;19.74;71.47;102873.94;5091476;28;20414;-67
2023/08/18 12:49:50;;;;;;;1.15;0.95;;;;;;;19.85;72.00;102870.84;5073267;28;20038;-68
2023/08/18 12:52:16;;;;;;;1.73;0.77;;;;;;;20.02;69.95;102853.56;5073554;28;20032;-68
2023/08/18 12:54:41;;;;;;;1.40;1.10;;;;;;;20.19;70.36;102862.44;5083070;28;20027;-68
2023/08/18 12:57:07;;;;;;;1.35;1.25;;;;;;;20.21;69.71;102854.16;5071483;28;20371;-67
2023/08/18 12:59:33;;;;;;;1.80;1.48;;;;;;;19.65;70.43;102824.41;5071417;28;20116;-67
2023/08/18 13:01:58;;;;;;;2.58;1.50;;;;;;;19.77;70.52;102858.19;5072227;28;20128;-67
2023/08/18 13:04:24;;;;;;;1.65;0.93;;;;;;;19.53;70.82;102816.81;5070484;28;20422;-68
2023/08/18 13:06:51;;;;;;;1.92;1.30;;;;;;;19.88;69.82;102862.38;5071942;28;20055;-67
2023/08/18 13:09:18;;;;;;;1.70;1.33;;;;;;;19.84;70.73;102871.88;5071863;28;20025;-67
2023/08/18 13:11:45;;;;;;;1.40;1.30;;;;;;;19.75;70.99;102878.31;5071682;28;20433;-65
2023/08/18 13:14:10;;;;;;;2.47;1.10;;;;;;;19.85;71.80;102870.84;5072885;28;20054;-66
2023/08/18 13:16:36;;;;;;;1.33;0.68;;;;;;;20.02;69.88;102875.22;5071354;28;20062;-68
2023/08/18 13:19:01;;;;;;;1.65;1.27;;;;;;;20.13;69.24;102873.13;5072646;28;20052;-66
2023/08/18 13:21:28;;;;;;;2.65;2.13;;;;;;;20.36;69.29;102871.34;5071168;28;20123;-69
2023/08/18 13:23:54;;;;;;;2.97;1.23;;;;;;;20.35;69.03;102850.72;5071185;28;20459;-67
2023/08/18 13:26:22;;;;;;;2.13;1.73;;;;;;;20.46;69.14;102863.03;5072596;28;20025;-67
2023/08/18 13:28:48;;;;;;;1.15;1.05;;;;;;;20.06;70.67;102857.59;5071625;28;20059;-67
2023/08/18 13:31:13;;;;;;;1.20;1.10;;;;;;;19.82;71.37;102868.50;5071656;28;20404;-66
2023/08/18 13:33:39;;;;;;;3.28;1.10;;;;;;;19.50;72.44;102845.03;5072571;28;20033;-66
2023/08/18 13:36:05;;;;;;;1.25;1.15;;;;;;;19.46;73.12;102866.16;5072343;28;20033;-69
2023/08/18 13:38:30;;;;;;;0.70;0.60;;;;;;;19.44;72.92;102862.78;5072050;28;20028;-66
2023/08/18 13:40:56;;;;;;;2.85;1.10;;;;;;;19.70;73.27;102881.53;5072164;28;20111;-68
2023/08/18 13:43:21;;;;;;;4.00;1.58;;;;;;;19.50;72.60;102883.72;5072380;28;20119;-68
2023/08/18 13:45:47;;;;;;;1.25;0.93;;;;;;;19.29;74.03;102885.22;5073246;28;20087;-67
2023/08/18 13:48:12;;;;;;;7.70;1.95;;;;;;;19.20;74.68;102873.59;5073001;28;20033;-65
2023/08/18 13:50:38;;;;;;;4.32;1.20;;;;;;;19.20;74.27;102884.41;5072775;28;20043;-67
2023/08/18 13:53:05;;;;;;;0.93;0.82;;;;;;;18.94;74.37;102865.63;5072630;28;20028;-66
2023/08/18 13:55:31;;;;;;;1.50;0.80;;;;;;;18.97;74.25;102886.06;5072682;28;20032;-67
2023/08/18 13:57:56;;;;;;;1.23;1.13;;;;;;;19.07;73.30;102886.72;5072769;28;20029;-66
2023/08/18 14:00:22;;;;;;;5.90;1.10;;;;;;;19.31;71.76;102877.78;5072884;28;20063;-68
2023/08/18 14:02:47;;;;;;;2.55;1.20;;;;;;;19.48;71.66;102869.53;5076154;28;20029;-66
2023/08/18 14:05:13;;;;;;;1.23;1.08;;;;;;;19.48;72.07;102857.88;5071838;28;20032;-67
2023/08/18 14:07:39;;;;;;;1.23;0.88;;;;;;;19.66;71.99;102874.78;5070759;28;20049;-67
2023/08/18 14:10:05;;;;;;;2.63;1.00;;;;;;;19.56;73.43;102886.78;5073634;28;20044;-65
2023/08/18 14:12:31;;;;;;;1.08;0.95;;;;;;;19.46;74.15;102887.78;5082363;28;20056;-67
2023/08/18 14:14:56;;;;;;;3.50;1.33;;;;;;;19.25;75.21;102883.88;5083113;28;20067;-65
2023/08/18 14:17:36;;;;;;;2.97;0.88;;;;;;;19.26;75.74;102894.53;5083371;28;20116;-65
2023/08/18 14:20:12;;;;;;;2.00;0.95;;;;;;;19.27;75.76;102887.25;5085279;28;20021;-67
2023/08/18 14:22:46;;;;;;;0.90;0.80;;;;;;;19.33;75.66;102881.16;5087000;28;20032;-66
2023/08/18 14:25:12;;;;;;;4.10;1.25;;;;;;;19.29;75.38;102880.66;5084080;28;20416;-65
2023/08/18 14:27:38;;;;;;;2.72;1.35;;;;;;;19.20;75.08;102879.00;5083452;28;20077;-65
2023/08/18 14:30:05;;;;;;;2.17;1.27;;;;;;;18.96;76.97;102873.56;5075727;28;20102;-67
2023/08/18 14:32:33;;;;;;;1.17;0.73;;;;;;;18.71;77.53;102851.91;5075820;28;20584;-69
2023/08/18 14:35:04;;;;;;;1.30;0.90;;;;;;;18.51;78.78;102855.91;5075439;28;20117;-66
2023/08/18 14:37:30;;;;;;;6.10;1.58;;;;;;;18.45;79.57;102853.84;5076030;28;20074;-68
2023/08/18 14:39:56;;;;;;;1.52;1.30;;;;;;;18.46;80.14;102866.31;5075962;28;20067;-68
2023/08/18 14:42:21;;;;;;;1.55;1.10;;;;;;;18.41;80.24;102874.06;5081466;28;20452;-65
2023/08/18 14:44:48;;;;;;;1.65;1.20;;;;;;;18.22;80.74;102875.19;5076713;28;20055;-66
2023/08/18 14:47:13;;;;;;;2.97;1.15;;;;;;;18.16;80.71;102860.47;5075666;28;20035;-67
2023/08/18 14:49:39;;;;;;;4.38;1.10;;;;;;;18.28;80.74;102874.53;5075508;28;20029;-67
2023/08/18 14:52:05;;;;;;;2.58;1.25;;;;;;;18.33;80.40;102879.44;5075317;28;20032;-66
2023/08/18 14:54:32;;;;;;;5.50;2.47;;;;;;;18.35;79.88;102859.38;5075228;28;20035;-64
2023/08/18 14:57:07;;;;;;;1.27;1.17;;;;;;;18.42;78.29;102870.34;5075221;28;20082;-67
2023/08/18 14:59:35;;;;;;;6.35;1.77;;;;;;;18.36;78.48;102865.59;5074192;28;20020;-66
2023/08/18 15:02:04;;;;;;;2.95;1.13;;;;;;;18.30;78.15;102868.97;5075720;28;20035;-65
2023/08/18 15:04:33;;;;;;;1.10;0.80;;;;;;;18.18;77.45;102884.56;5075559;28;20025;-65
2023/08/18 15:06:59;;;;;;;3.22;1.10;;;;;;;18.14;77.89;102878.66;5075345;28;20053;-65
2023/08/18 15:09:25;;;;;;;2.35;1.23;;;;;;;18.14;77.02;102885.91;5075792;28;20032;-68
2023/08/18 15:11:50;;;;;;;4.13;1.50;;;;;;;17.89;78.13;102874.13;5076128;28;20031;-66
2023/08/18 15:14:16;;;;;;;4.13;1.55;;;;;;;17.68;79.23;102862.91;5076213;28;20028;-67
2023/08/18 15:16:42;;;;;;;2.38;1.80;;;;;;;17.68;80.35;102876.38;5075179;28;20035;-66
2023/08/18 15:19:08;;;;;;;1.55;1.35;;;;;;;17.43;80.47;102835.75;5073870;28;20478;-66
2023/08/18 15:21:33;;;;;;;2.60;2.30;;;;;;;17.72;80.66;102875.06;5077033;28;20029;-67
2023/08/18 15:24:06;;;;;;;1.55;1.45;;;;;;;17.77;80.84;102884.34;5083624;28;20035;-66
2023/08/18 15:26:31;;;;;;;1.85;1.27;;;;;;;17.54;80.91;102843.56;5081057;28;20020;-65
2023/08/18 15:28:57;;;;;;;2.55;1.20;;;;;;;17.67;81.55;102871.97;5075112;28;20115;-65
2023/08/18 15:31:22;;;;;;;1.55;1.45;;;;;;;17.62;81.93;102858.94;5079609;28;20020;-66
2023/08/18 15:33:48;;;;;;;2.13;1.45;;;;;;;17.67;81.82;102874.66;5080947;28;20024;-64
2023/08/18 15:36:13;;;;;;;3.65;1.60;;;;;;;17.51;82.77;102838.50;5080971;28;20495;-65
2023/08/18 15:38:38;;;;;;;5.15;1.55;;;;;;;17.72;82.30;102872.34;5083124;28;20369;-67
2023/08/18 15:41:04;;;;;;;2.38;1.80;;;;;;;17.81;82.03;102866.84;5082503;28;20379;-66
2023/08/18 15:43:33;;;;;;;3.80;1.50;;;;;;;17.92;82.36;102873.81;5081189;28;20503;-66
2023/08/18 15:45:58;;;;;;;2.13;1.73;;;;;;;17.87;82.74;102876.16;5079877;28;20101;-66
2023/08/18 15:48:24;;;;;;;1.77;1.67;;;;;;;17.92;82.80;102869.25;5078813;28;20032;-67
2023/08/18 15:50:50;;;;;;;1.80;1.48;;;;;;;17.84;83.53;102860.28;5082347;28;20102;-66
2023/08/18 15:53:22;;;;;;;2.35;1.80;;;;;;;17.92;83.42;102873.81;5082431;28;20521;-65
2023/08/18 15:55:49;;;;;;;1.38;1.27;;;;;;;17.84;83.93;102871.91;5082403;28;20062;-67
2023/08/18 15:58:16;;;;;;;2.60;1.80;;;;;;;17.80;84.86;102867.84;5081013;28;20029;-65
2023/08/18 16:00:43;;;;;;;2.67;1.38;;;;;;;17.86;84.55;102863.69;5080308;28;20025;-66
2023/08/18 16:03:09;;;;;;;2.78;1.70;;;;;;;17.70;85.12;102853.66;5080132;28;20028;-66
2023/08/18 16:05:36;;;;;;;3.03;1.95;;;;;;;17.68;85.70;102876.38;5079890;28;20027;-66
2023/08/18 16:08:08;;;;;;;3.13;1.88;;;;;;;17.58;86.42;102858.41;5075301;28;20375;-66
2023/08/18 16:10:40;;;;;;;3.15;1.75;;;;;;;17.68;86.58;102865.59;5072608;28;20035;-67
2023/08/18 16:13:13;;;;;;;2.80;2.33;;;;;;;17.71;86.15;102859.88;5074583;28;20097;-66
2023/08/18 16:15:40;;;;;;;2.95;2.45;;;;;;;17.85;86.19;102864.69;5074226;28;20479;-66
2023/08/18 16:18:06;;;;;;;3.95;2.20;;;;;;;17.91;85.67;102855.94;5074286;28;20056;-66
2023/08/18 16:20:32;;;;;;;2.33;1.65;;;;;;;17.80;86.01;102848.16;5074463;28;20082;-64
2023/08/18 16:22:57;;;;;;;2.53;1.95;;;;;;;17.78;86.16;102853.69;5073543;28;20036;-66
2023/08/18 16:25:25;;;;;;;2.08;1.88;;;;;;;17.78;86.79;102856.41;5072942;28;20024;-67
2023/08/18 16:27:51;;;;;;;1.95;1.75;;;;;;;17.63;86.35;102833.69;5074117;28;20021;-68
2023/08/18 16:30:17;;;;;;;3.72;2.40;;;;;;;17.73;86.50;102860.56;5072573;28;20488;-67
2023/08/18 16:32:44;;;;;;;2.17;1.98;;;;;;;17.59;86.96;102862.78;5073987;28;20071;-66
2023/08/18 16:35:10;;;;;;;2.27;2.10;;;;;;;17.61;87.57;102860.78;5072485;28;20438;-66
2023/08/18 16:37:36;;;;;;;2.65;2.20;;;;;;;17.48;87.94;102862.22;5072046;28;20021;-66
2023/08/18 16:40:01;;;;;;;3.28;2.97;;;;;;;17.33;88.61;102856.53;5072692;28;20028;-65
2023/08/18 16:42:29;;;;;;;3.63;2.28;;;;;;;17.20;89.60;102850.72;5073405;28;20491;-68
2023/08/18 16:44:54;;;;;;;3.15;2.15;;;;;;;17.08;89.83;102851.97;5073061;28;20051;-67
2023/08/18 16:47:20;;;;;;;4.45;2.10;;;;;;;16.88;90.64;102832.44;5072451;28;20036;-65
2023/08/18 16:49:45;;;;;;;5.05;3.22;;;;;;;17.10;91.34;102866.13;5073014;28;20523;-65
2023/08/18 16:52:11;;;;;;;3.95;2.75;;;;;;;17.07;91.72;102858.34;5072880;28;20031;-66
2023/08/18 16:54:36;;;;;;;4.53;2.50;;;;;;;17.12;91.62;102869.50;5072973;28;20021;-66
2023/08/18 16:57:02;;;;;;;2.50;2.30;;;;;;;17.02;91.05;102856.09;5071576;28;20383;-66
2023/08/18 16:59:28;;;;;;;5.47;2.78;;;;;;;17.01;92.04;102860.63;5072833;28;20182;-65
2023/08/18 17:01:54;;;;;;;2.30;2.10;;;;;;;16.92;92.09;102847.25;5072569;28;20032;-65
2023/08/18 17:04:20;;;;;;;3.15;2.70;;;;;;;17.04;92.33;102872.94;5072041;28;20032;-66
2023/08/18 17:06:45;;;;;;;3.40;3.08;;;;;;;16.84;92.68;102842.66;5072669;28;20174;-66
2023/08/18 17:09:12;;;;;;;8.07;3.05;;;;;;;16.97;92.75;102875.41;5073135;28;20044;-67
2023/08/18 17:11:37;;;;;;;3.80;2.60;;;;;;;16.88;93.05;102854.81;5072750;28;20044;-67
2023/08/18 17:14:03;;;;;;;2.08;1.88;;;;;;;16.84;92.89;102861.50;5072692;28;20021;-66
2023/08/18 17:16:28;;;;;;;2.60;2.22;;;;;;;16.82;93.56;102858.13;5072435;28;20071;-67
2023/08/18 17:18:54;;;;;;;3.55;3.22;;;;;;;16.78;94.08;102856.72;5081291;28;20463;-70
2023/08/18 17:21:21;;;;;;;5.55;3.30;;;;;;;16.77;94.44;102864.94;5075302;28;20020;-66
2023/08/18 17:23:47;;;;;;;3.78;2.97;;;;;;;16.69;94.94;102863.00;5072853;28;20078;-66
2023/08/18 17:26:13;;;;;;;9.50;5.57;;;;;;;16.57;95.47;102858.81;5072314;28;20036;-71
2023/08/18 17:28:39;;;;;;;4.45;3.80;;;;;;;16.63;95.82;102863.59;5072992;28;20032;-65
2023/08/18 17:31:08;;;;;;;4.03;3.50;;;;;;;16.60;96.17;102874.66;5072507;28;20032;-69